sensor_id;sensor_type;location;lat;lon;timestamp;P1;durP1;ratioP1;P2;durP2;ratioP2
22080;SDS011;11207;59.512;18.050;2022-09-30T00:01:40;5.43;;;2.80;;
22080;SDS011;11207;59.512;18.050;2022-09-30T00:04:08;2.50;;;2.40;;
22080;SDS011;11207;59.512;18.050;2022-09-30T00:06:39;3.03;;;2.50;;
22080;SDS011;11207;59.512;18.050;2022-09-30T00:09:05;4.07;;;3.20;;
22080;SDS011;11207;59.512;18.050;2022-09-30T00:11:32;4.23;;;2.67;;
22080;SDS011;11207;59.512;18.050;2022-09-30T00:14:00;4.37;;;2.93;;
22080;SDS011;11207;59.512;18.050;2022-09-30T00:16:27;2.97;;;2.73;;
22080;SDS011;11207;59.512;18.050;2022-09-30T00:18:58;4.20;;;2.90;;
22080;SDS011;11207;59.512;18.050;2022-09-30T00:21:24;2.70;;;2.50;;
22080;SDS011;11207;59.512;18.050;2022-09-30T00:23:50;2.67;;;2.47;;
22080;SDS011;11207;59.512;18.050;2022-09-30T00:26:17;2.83;;;2.63;;
22080;SDS011;11207;59.512;18.050;2022-09-30T00:28:47;3.27;;;2.70;;
22080;SDS011;11207;59.512;18.050;2022-09-30T00:31:18;3.93;;;3.10;;
22080;SDS011;11207;59.512;18.050;2022-09-30T00:33:45;2.73;;;2.53;;
22080;SDS011;11207;59.512;18.050;2022-09-30T00:36:34;2.90;;;2.70;;
22080;SDS011;11207;59.512;18.050;2022-09-30T00:39:03;4.13;;;2.97;;
22080;SDS011;11207;59.512;18.050;2022-09-30T00:41:29;3.00;;;2.80;;
22080;SDS011;11207;59.512;18.050;2022-09-30T00:43:55;3.63;;;2.73;;
22080;SDS011;11207;59.512;18.050;2022-09-30T00:48:53;2.80;;;2.60;;
22080;SDS011;11207;59.512;18.050;2022-09-30T00:51:23;2.80;;;2.60;;
22080;SDS011;11207;59.512;18.050;2022-09-30T00:53:57;3.23;;;2.93;;
22080;SDS011;11207;59.512;18.050;2022-09-30T00:56:37;3.40;;;2.87;;
22080;SDS011;11207;59.512;18.050;2022-09-30T00:59:08;3.30;;;3.00;;
22080;SDS011;11207;59.512;18.050;2022-09-30T01:01:35;2.67;;;2.47;;
22080;SDS011;11207;59.512;18.050;2022-09-30T01:04:05;2.80;;;2.60;;
22080;SDS011;11207;59.512;18.050;2022-09-30T01:06:45;2.80;;;2.60;;
22080;SDS011;11207;59.512;18.050;2022-09-30T01:09:12;2.80;;;2.60;;
22080;SDS011;11207;59.512;18.050;2022-09-30T01:11:38;6.13;;;3.40;;
22080;SDS011;11207;59.512;18.050;2022-09-30T01:14:05;3.00;;;2.80;;
22080;SDS011;11207;59.512;18.050;2022-09-30T01:22:05;2.87;;;2.67;;
22080;SDS011;11207;59.512;18.050;2022-09-30T01:41:00;2.80;;;2.60;;
22080;SDS011;11207;59.512;18.050;2022-09-30T01:43:46;5.53;;;3.10;;
22080;SDS011;11207;59.512;18.050;2022-09-30T01:46:42;3.00;;;2.70;;
22080;SDS011;11207;59.512;18.050;2022-09-30T02:00:14;3.10;;;2.80;;
22080;SDS011;11207;59.512;18.050;2022-09-30T02:05:19;3.30;;;3.00;;
22080;SDS011;11207;59.512;18.050;2022-09-30T02:07:53;2.73;;;2.53;;
22080;SDS011;11207;59.512;18.050;2022-09-30T02:10:25;3.37;;;3.13;;
22080;SDS011;11207;59.512;18.050;2022-09-30T02:13:17;3.67;;;3.00;;
22080;SDS011;11207;59.512;18.050;2022-09-30T02:15:45;3.40;;;3.10;;
22080;SDS011;11207;59.512;18.050;2022-09-30T02:18:16;2.83;;;2.50;;
22080;SDS011;11207;59.512;18.050;2022-09-30T02:20:52;4.47;;;2.70;;
22080;SDS011;11207;59.512;18.050;2022-09-30T02:23:24;4.17;;;2.80;;
22080;SDS011;11207;59.512;18.050;2022-09-30T02:26:00;3.07;;;2.67;;
22080;SDS011;11207;59.512;18.050;2022-09-30T02:28:52;6.03;;;2.87;;
22080;SDS011;11207;59.512;18.050;2022-09-30T02:31:23;3.10;;;2.80;;
22080;SDS011;11207;59.512;18.050;2022-09-30T02:33:53;3.50;;;3.20;;
22080;SDS011;11207;59.512;18.050;2022-09-30T02:36:28;2.63;;;2.43;;
22080;SDS011;11207;59.512;18.050;2022-09-30T02:39:01;3.27;;;2.83;;
22080;SDS011;11207;59.512;18.050;2022-09-30T02:41:38;3.33;;;3.03;;
22080;SDS011;11207;59.512;18.050;2022-09-30T02:44:10;2.90;;;2.70;;
22080;SDS011;11207;59.512;18.050;2022-09-30T02:46:40;3.27;;;2.97;;
22080;SDS011;11207;59.512;18.050;2022-09-30T02:50:00;3.50;;;2.63;;
22080;SDS011;11207;59.512;18.050;2022-09-30T02:52:42;3.37;;;2.77;;
22080;SDS011;11207;59.512;18.050;2022-09-30T02:57:56;2.80;;;2.60;;
22080;SDS011;11207;59.512;18.050;2022-09-30T03:00:35;2.90;;;2.70;;
22080;SDS011;11207;59.512;18.050;2022-09-30T03:03:06;2.80;;;2.60;;
22080;SDS011;11207;59.512;18.050;2022-09-30T03:05:53;2.80;;;2.60;;
22080;SDS011;11207;59.512;18.050;2022-09-30T03:08:19;4.13;;;2.87;;
22080;SDS011;11207;59.512;18.050;2022-09-30T03:10:45;5.57;;;2.70;;
22080;SDS011;11207;59.512;18.050;2022-09-30T03:13:28;5.90;;;2.60;;
22080;SDS011;11207;59.512;18.050;2022-09-30T03:21:54;3.10;;;2.70;;
22080;SDS011;11207;59.512;18.050;2022-09-30T03:30:17;3.33;;;3.00;;
22080;SDS011;11207;59.512;18.050;2022-09-30T03:41:06;2.97;;;2.70;;
22080;SDS011;11207;59.512;18.050;2022-09-30T03:43:47;2.70;;;2.50;;
22080;SDS011;11207;59.512;18.050;2022-09-30T03:46:35;3.40;;;3.00;;
22080;SDS011;11207;59.512;18.050;2022-09-30T03:49:07;3.03;;;2.83;;
22080;SDS011;11207;59.512;18.050;2022-09-30T03:51:39;2.93;;;2.73;;
22080;SDS011;11207;59.512;18.050;2022-09-30T03:54:07;3.10;;;2.90;;
22080;SDS011;11207;59.512;18.050;2022-09-30T03:56:34;2.83;;;2.63;;
22080;SDS011;11207;59.512;18.050;2022-09-30T03:59:01;2.80;;;2.60;;
22080;SDS011;11207;59.512;18.050;2022-09-30T04:01:27;3.20;;;2.90;;
22080;SDS011;11207;59.512;18.050;2022-09-30T04:03:53;3.27;;;2.97;;
22080;SDS011;11207;59.512;18.050;2022-09-30T04:06:19;3.73;;;3.20;;
22080;SDS011;11207;59.512;18.050;2022-09-30T04:08:46;3.97;;;2.90;;
22080;SDS011;11207;59.512;18.050;2022-09-30T04:11:12;3.00;;;2.80;;
22080;SDS011;11207;59.512;18.050;2022-09-30T04:13:38;2.97;;;2.77;;
22080;SDS011;11207;59.512;18.050;2022-09-30T04:16:04;5.30;;;3.03;;
22080;SDS011;11207;59.512;18.050;2022-09-30T04:18:32;2.80;;;2.60;;
22080;SDS011;11207;59.512;18.050;2022-09-30T04:21:05;3.23;;;2.93;;
22080;SDS011;11207;59.512;18.050;2022-09-30T04:23:36;6.43;;;3.27;;
22080;SDS011;11207;59.512;18.050;2022-09-30T04:26:04;3.30;;;3.00;;
22080;SDS011;11207;59.512;18.050;2022-09-30T04:28:34;3.40;;;3.10;;
22080;SDS011;11207;59.512;18.050;2022-09-30T04:31:00;2.80;;;2.60;;
22080;SDS011;11207;59.512;18.050;2022-09-30T04:33:28;3.70;;;3.07;;
22080;SDS011;11207;59.512;18.050;2022-09-30T04:35:54;3.93;;;3.10;;
22080;SDS011;11207;59.512;18.050;2022-09-30T04:38:21;3.07;;;2.80;;
22080;SDS011;11207;59.512;18.050;2022-09-30T04:40:48;3.10;;;2.83;;
22080;SDS011;11207;59.512;18.050;2022-09-30T04:43:18;3.03;;;2.80;;
22080;SDS011;11207;59.512;18.050;2022-09-30T04:45:46;3.30;;;3.00;;
22080;SDS011;11207;59.512;18.050;2022-09-30T04:48:12;3.17;;;2.87;;
22080;SDS011;11207;59.512;18.050;2022-09-30T04:50:39;3.60;;;3.03;;
22080;SDS011;11207;59.512;18.050;2022-09-30T04:53:06;3.30;;;3.00;;
22080;SDS011;11207;59.512;18.050;2022-09-30T04:55:32;3.30;;;3.00;;
22080;SDS011;11207;59.512;18.050;2022-09-30T04:57:58;6.80;;;3.03;;
22080;SDS011;11207;59.512;18.050;2022-09-30T05:00:24;3.73;;;2.87;;
22080;SDS011;11207;59.512;18.050;2022-09-30T05:02:50;2.93;;;2.73;;
22080;SDS011;11207;59.512;18.050;2022-09-30T05:05:16;3.37;;;3.07;;
22080;SDS011;11207;59.512;18.050;2022-09-30T05:07:42;3.50;;;3.20;;
22080;SDS011;11207;59.512;18.050;2022-09-30T05:10:08;3.27;;;3.00;;
22080;SDS011;11207;59.512;18.050;2022-09-30T05:12:35;3.30;;;3.00;;
22080;SDS011;11207;59.512;18.050;2022-09-30T05:15:03;3.70;;;3.40;;
22080;SDS011;11207;59.512;18.050;2022-09-30T05:17:29;3.37;;;3.13;;
22080;SDS011;11207;59.512;18.050;2022-09-30T05:19:56;3.27;;;3.07;;
22080;SDS011;11207;59.512;18.050;2022-09-30T05:22:22;3.20;;;3.00;;
22080;SDS011;11207;59.512;18.050;2022-09-30T05:24:51;3.60;;;3.30;;
22080;SDS011;11207;59.512;18.050;2022-09-30T05:27:18;3.70;;;3.40;;
22080;SDS011;11207;59.512;18.050;2022-09-30T05:29:44;3.73;;;3.43;;
22080;SDS011;11207;59.512;18.050;2022-09-30T05:32:10;3.70;;;3.40;;
22080;SDS011;11207;59.512;18.050;2022-09-30T05:34:36;3.90;;;3.47;;
22080;SDS011;11207;59.512;18.050;2022-09-30T05:37:03;3.80;;;3.50;;
22080;SDS011;11207;59.512;18.050;2022-09-30T05:39:33;3.40;;;3.10;;
22080;SDS011;11207;59.512;18.050;2022-09-30T05:41:59;5.50;;;3.40;;
22080;SDS011;11207;59.512;18.050;2022-09-30T05:44:25;5.70;;;3.20;;
22080;SDS011;11207;59.512;18.050;2022-09-30T05:46:50;3.80;;;3.40;;
22080;SDS011;11207;59.512;18.050;2022-09-30T05:49:16;3.80;;;3.40;;
22080;SDS011;11207;59.512;18.050;2022-09-30T05:51:42;3.70;;;3.40;;
22080;SDS011;11207;59.512;18.050;2022-09-30T05:54:08;3.33;;;3.13;;
22080;SDS011;11207;59.512;18.050;2022-09-30T05:56:34;4.80;;;3.67;;
22080;SDS011;11207;59.512;18.050;2022-09-30T05:59:02;5.50;;;3.80;;
22080;SDS011;11207;59.512;18.050;2022-09-30T06:01:29;3.30;;;3.10;;
22080;SDS011;11207;59.512;18.050;2022-09-30T06:03:54;4.03;;;3.60;;
22080;SDS011;11207;59.512;18.050;2022-09-30T06:06:20;3.60;;;3.30;;
22080;SDS011;11207;59.512;18.050;2022-09-30T06:08:46;4.03;;;3.57;;
22080;SDS011;11207;59.512;18.050;2022-09-30T06:11:16;3.60;;;3.30;;
22080;SDS011;11207;59.512;18.050;2022-09-30T06:13:44;3.90;;;3.60;;
22080;SDS011;11207;59.512;18.050;2022-09-30T06:16:14;4.30;;;3.43;;
22080;SDS011;11207;59.512;18.050;2022-09-30T06:18:40;3.77;;;3.43;;
22080;SDS011;11207;59.512;18.050;2022-09-30T06:21:07;3.80;;;3.50;;
22080;SDS011;11207;59.512;18.050;2022-09-30T06:23:35;3.40;;;3.10;;
22080;SDS011;11207;59.512;18.050;2022-09-30T06:26:02;3.83;;;3.47;;
22080;SDS011;11207;59.512;18.050;2022-09-30T06:28:29;4.13;;;3.50;;
22080;SDS011;11207;59.512;18.050;2022-09-30T06:31:00;3.50;;;3.20;;
22080;SDS011;11207;59.512;18.050;2022-09-30T06:33:26;3.67;;;3.37;;
22080;SDS011;11207;59.512;18.050;2022-09-30T06:35:53;6.20;;;3.50;;
22080;SDS011;11207;59.512;18.050;2022-09-30T06:38:19;6.33;;;3.30;;
22080;SDS011;11207;59.512;18.050;2022-09-30T06:40:47;5.00;;;3.53;;
22080;SDS011;11207;59.512;18.050;2022-09-30T06:43:19;5.03;;;3.63;;
22080;SDS011;11207;59.512;18.050;2022-09-30T06:45:45;3.97;;;3.57;;
22080;SDS011;11207;59.512;18.050;2022-09-30T06:48:12;4.70;;;3.80;;
22080;SDS011;11207;59.512;18.050;2022-09-30T06:50:39;7.97;;;3.60;;
22080;SDS011;11207;59.512;18.050;2022-09-30T06:53:07;4.10;;;3.60;;
22080;SDS011;11207;59.512;18.050;2022-09-30T06:55:37;4.20;;;3.63;;
22080;SDS011;11207;59.512;18.050;2022-09-30T06:58:09;4.90;;;3.87;;
22080;SDS011;11207;59.512;18.050;2022-09-30T07:00:38;6.03;;;3.67;;
22080;SDS011;11207;59.512;18.050;2022-09-30T07:03:04;3.80;;;3.50;;
22080;SDS011;11207;59.512;18.050;2022-09-30T07:05:35;4.30;;;3.47;;
22080;SDS011;11207;59.512;18.050;2022-09-30T07:08:02;3.93;;;3.63;;
22080;SDS011;11207;59.512;18.050;2022-09-30T07:10:28;4.10;;;3.70;;
22080;SDS011;11207;59.512;18.050;2022-09-30T07:12:53;4.67;;;3.70;;
22080;SDS011;11207;59.512;18.050;2022-09-30T07:15:19;3.80;;;3.50;;
22080;SDS011;11207;59.512;18.050;2022-09-30T07:17:53;5.93;;;4.13;;
22080;SDS011;11207;59.512;18.050;2022-09-30T07:20:23;3.70;;;3.40;;
22080;SDS011;11207;59.512;18.050;2022-09-30T07:22:49;3.63;;;3.33;;
22080;SDS011;11207;59.512;18.050;2022-09-30T07:25:16;4.10;;;3.60;;
22080;SDS011;11207;59.512;18.050;2022-09-30T07:27:42;3.93;;;3.60;;
22080;SDS011;11207;59.512;18.050;2022-09-30T07:30:09;3.83;;;3.33;;
22080;SDS011;11207;59.512;18.050;2022-09-30T07:32:35;6.63;;;3.60;;
22080;SDS011;11207;59.512;18.050;2022-09-30T07:35:01;4.47;;;3.40;;
22080;SDS011;11207;59.512;18.050;2022-09-30T07:37:27;3.73;;;3.43;;
22080;SDS011;11207;59.512;18.050;2022-09-30T07:39:56;3.47;;;3.17;;
22080;SDS011;11207;59.512;18.050;2022-09-30T07:42:22;4.27;;;3.13;;
22080;SDS011;11207;59.512;18.050;2022-09-30T07:44:48;3.83;;;3.40;;
22080;SDS011;11207;59.512;18.050;2022-09-30T07:47:16;4.00;;;3.30;;
22080;SDS011;11207;59.512;18.050;2022-09-30T07:49:42;3.30;;;3.00;;
22080;SDS011;11207;59.512;18.050;2022-09-30T07:52:09;3.50;;;3.20;;
22080;SDS011;11207;59.512;18.050;2022-09-30T07:54:36;3.00;;;2.80;;
22080;SDS011;11207;59.512;18.050;2022-09-30T07:57:02;4.37;;;3.00;;
22080;SDS011;11207;59.512;18.050;2022-09-30T07:59:29;3.67;;;3.30;;
22080;SDS011;11207;59.512;18.050;2022-09-30T08:01:56;2.80;;;2.60;;
22080;SDS011;11207;59.512;18.050;2022-09-30T08:04:23;5.83;;;2.70;;
22080;SDS011;11207;59.512;18.050;2022-09-30T08:06:51;3.00;;;2.80;;
22080;SDS011;11207;59.512;18.050;2022-09-30T08:09:22;2.70;;;2.50;;
22080;SDS011;11207;59.512;18.050;2022-09-30T08:11:49;4.17;;;2.40;;
22080;SDS011;11207;59.512;18.050;2022-09-30T08:14:16;2.70;;;2.50;;
22080;SDS011;11207;59.512;18.050;2022-09-30T08:16:44;2.87;;;2.67;;
22080;SDS011;11207;59.512;18.050;2022-09-30T08:19:14;3.87;;;3.43;;
22080;SDS011;11207;59.512;18.050;2022-09-30T08:21:44;3.63;;;3.33;;
22080;SDS011;11207;59.512;18.050;2022-09-30T08:24:10;3.73;;;3.10;;
22080;SDS011;11207;59.512;18.050;2022-09-30T08:26:39;2.77;;;2.50;;
22080;SDS011;11207;59.512;18.050;2022-09-30T08:29:05;2.43;;;2.33;;
22080;SDS011;11207;59.512;18.050;2022-09-30T08:31:30;2.60;;;2.40;;
22080;SDS011;11207;59.512;18.050;2022-09-30T08:33:57;5.17;;;2.80;;
22080;SDS011;11207;59.512;18.050;2022-09-30T08:36:24;2.53;;;2.10;;
22080;SDS011;11207;59.512;18.050;2022-09-30T08:38:50;5.57;;;2.53;;
22080;SDS011;11207;59.512;18.050;2022-09-30T08:41:36;3.60;;;2.57;;
22080;SDS011;11207;59.512;18.050;2022-09-30T08:50:13;3.40;;;2.20;;
22080;SDS011;11207;59.512;18.050;2022-09-30T08:52:50;3.77;;;2.40;;
22080;SDS011;11207;59.512;18.050;2022-09-30T08:56:04;4.33;;;2.40;;
22080;SDS011;11207;59.512;18.050;2022-09-30T08:58:14;2.60;;;2.40;;
22080;SDS011;11207;59.512;18.050;2022-09-30T09:00:45;3.10;;;2.03;;
22080;SDS011;11207;59.512;18.050;2022-09-30T09:03:12;2.40;;;2.20;;
22080;SDS011;11207;59.512;18.050;2022-09-30T09:08:19;2.50;;;2.30;;
22080;SDS011;11207;59.512;18.050;2022-09-30T09:11:06;2.60;;;2.40;;
22080;SDS011;11207;59.512;18.050;2022-09-30T09:16:31;2.33;;;2.17;;
22080;SDS011;11207;59.512;18.050;2022-09-30T09:19:42;2.23;;;2.07;;
22080;SDS011;11207;59.512;18.050;2022-09-30T09:22:24;2.37;;;2.20;;
22080;SDS011;11207;59.512;18.050;2022-09-30T09:24:52;2.63;;;2.30;;
22080;SDS011;11207;59.512;18.050;2022-09-30T09:30:02;2.00;;;1.90;;
22080;SDS011;11207;59.512;18.050;2022-09-30T09:32:37;2.00;;;1.90;;
22080;SDS011;11207;59.512;18.050;2022-09-30T09:35:14;2.37;;;2.17;;
22080;SDS011;11207;59.512;18.050;2022-09-30T09:37:55;2.23;;;2.03;;
22080;SDS011;11207;59.512;18.050;2022-09-30T09:51:36;1.97;;;1.87;;
22080;SDS011;11207;59.512;18.050;2022-09-30T09:54:07;2.40;;;2.20;;
22080;SDS011;11207;59.512;18.050;2022-09-30T09:56:35;2.47;;;2.00;;
22080;SDS011;11207;59.512;18.050;2022-09-30T10:01:38;2.53;;;2.33;;
22080;SDS011;11207;59.512;18.050;2022-09-30T10:04:13;2.40;;;2.30;;
22080;SDS011;11207;59.512;18.050;2022-09-30T10:14:36;2.27;;;2.07;;
22080;SDS011;11207;59.512;18.050;2022-09-30T10:17:16;1.80;;;1.70;;
22080;SDS011;11207;59.512;18.050;2022-09-30T10:19:50;1.80;;;1.70;;
22080;SDS011;11207;59.512;18.050;2022-09-30T10:22:28;2.07;;;1.97;;
22080;SDS011;11207;59.512;18.050;2022-09-30T10:30:37;2.40;;;2.07;;
22080;SDS011;11207;59.512;18.050;2022-09-30T10:33:11;2.00;;;1.90;;
22080;SDS011;11207;59.512;18.050;2022-09-30T10:35:49;2.00;;;1.90;;
22080;SDS011;11207;59.512;18.050;2022-09-30T10:38:20;2.93;;;2.20;;
22080;SDS011;11207;59.512;18.050;2022-09-30T10:40:49;2.30;;;2.10;;
22080;SDS011;11207;59.512;18.050;2022-09-30T10:43:49;2.20;;;2.00;;
22080;SDS011;11207;59.512;18.050;2022-09-30T10:46:09;2.40;;;1.97;;
22080;SDS011;11207;59.512;18.050;2022-09-30T10:48:35;2.10;;;2.00;;
22080;SDS011;11207;59.512;18.050;2022-09-30T10:51:02;2.87;;;2.30;;
22080;SDS011;11207;59.512;18.050;2022-09-30T10:53:31;1.90;;;1.80;;
22080;SDS011;11207;59.512;18.050;2022-09-30T10:55:58;2.30;;;2.10;;
22080;SDS011;11207;59.512;18.050;2022-09-30T10:58:41;2.37;;;2.20;;
22080;SDS011;11207;59.512;18.050;2022-09-30T11:03:57;2.70;;;2.20;;
22080;SDS011;11207;59.512;18.050;2022-09-30T11:06:32;4.20;;;2.30;;
22080;SDS011;11207;59.512;18.050;2022-09-30T11:12:22;2.50;;;1.93;;
22080;SDS011;11207;59.512;18.050;2022-09-30T11:15:02;2.40;;;2.20;;
22080;SDS011;11207;59.512;18.050;2022-09-30T11:17:48;2.00;;;1.90;;
22080;SDS011;11207;59.512;18.050;2022-09-30T11:23:02;2.13;;;2.03;;
22080;SDS011;11207;59.512;18.050;2022-09-30T11:31:18;1.87;;;1.77;;
22080;SDS011;11207;59.512;18.050;2022-09-30T11:37:15;2.63;;;2.10;;
22080;SDS011;11207;59.512;18.050;2022-09-30T11:40:08;2.17;;;1.77;;
22080;SDS011;11207;59.512;18.050;2022-09-30T11:49:40;2.33;;;2.07;;
22080;SDS011;11207;59.512;18.050;2022-09-30T11:51:55;3.13;;;1.90;;
22080;SDS011;11207;59.512;18.050;2022-09-30T11:54:43;2.20;;;2.00;;
22080;SDS011;11207;59.512;18.050;2022-09-30T12:00:33;2.07;;;1.87;;
22080;SDS011;11207;59.512;18.050;2022-09-30T12:08:10;2.00;;;1.90;;
22080;SDS011;11207;59.512;18.050;2022-09-30T12:10:46;3.73;;;2.07;;
22080;SDS011;11207;59.512;18.050;2022-09-30T12:13:25;2.60;;;1.83;;
22080;SDS011;11207;59.512;18.050;2022-09-30T12:15:58;2.37;;;2.17;;
22080;SDS011;11207;59.512;18.050;2022-09-30T12:18:33;1.93;;;1.83;;
22080;SDS011;11207;59.512;18.050;2022-09-30T12:21:09;2.00;;;1.90;;
22080;SDS011;11207;59.512;18.050;2022-09-30T12:23:48;3.10;;;2.07;;
22080;SDS011;11207;59.512;18.050;2022-09-30T12:26:27;2.47;;;2.00;;
22080;SDS011;11207;59.512;18.050;2022-09-30T12:28:59;4.33;;;1.97;;
22080;SDS011;11207;59.512;18.050;2022-09-30T12:48:36;1.73;;;1.63;;
22080;SDS011;11207;59.512;18.050;2022-09-30T12:51:07;1.93;;;1.83;;
22080;SDS011;11207;59.512;18.050;2022-09-30T12:53:36;1.80;;;1.70;;
22080;SDS011;11207;59.512;18.050;2022-09-30T12:56:07;2.37;;;1.90;;
22080;SDS011;11207;59.512;18.050;2022-09-30T12:58:46;1.87;;;1.77;;
22080;SDS011;11207;59.512;18.050;2022-09-30T13:01:14;3.10;;;2.10;;
22080;SDS011;11207;59.512;18.050;2022-09-30T13:04:08;2.27;;;2.00;;
22080;SDS011;11207;59.512;18.050;2022-09-30T13:19:38;1.80;;;1.70;;
22080;SDS011;11207;59.512;18.050;2022-09-30T13:27:34;1.90;;;1.80;;
22080;SDS011;11207;59.512;18.050;2022-09-30T13:32:37;2.07;;;1.63;;
22080;SDS011;11207;59.512;18.050;2022-09-30T13:40:45;1.80;;;1.70;;
22080;SDS011;11207;59.512;18.050;2022-09-30T13:45:51;4.03;;;1.67;;
22080;SDS011;11207;59.512;18.050;2022-09-30T13:48:27;2.10;;;1.90;;
22080;SDS011;11207;59.512;18.050;2022-09-30T13:50:55;1.90;;;1.80;;
22080;SDS011;11207;59.512;18.050;2022-09-30T13:56:11;1.83;;;1.73;;
22080;SDS011;11207;59.512;18.050;2022-09-30T14:23:12;2.27;;;2.07;;
22080;SDS011;11207;59.512;18.050;2022-09-30T14:25:41;2.33;;;2.13;;
22080;SDS011;11207;59.512;18.050;2022-09-30T14:28:30;2.23;;;1.90;;
22080;SDS011;11207;59.512;18.050;2022-09-30T14:31:03;2.33;;;2.00;;
22080;SDS011;11207;59.512;18.050;2022-09-30T14:33:36;2.57;;;1.90;;
22080;SDS011;11207;59.512;18.050;2022-09-30T14:36:05;2.00;;;1.83;;
22080;SDS011;11207;59.512;18.050;2022-09-30T14:38:36;1.90;;;1.70;;
22080;SDS011;11207;59.512;18.050;2022-09-30T14:41:06;1.70;;;1.60;;
22080;SDS011;11207;59.512;18.050;2022-09-30T14:43:41;1.90;;;1.80;;
22080;SDS011;11207;59.512;18.050;2022-09-30T14:48:53;1.90;;;1.80;;
22080;SDS011;11207;59.512;18.050;2022-09-30T14:51:23;2.03;;;1.93;;
22080;SDS011;11207;59.512;18.050;2022-09-30T14:56:20;2.20;;;2.00;;
22080;SDS011;11207;59.512;18.050;2022-09-30T14:58:57;2.93;;;1.90;;
22080;SDS011;11207;59.512;18.050;2022-09-30T15:01:24;2.53;;;2.33;;
22080;SDS011;11207;59.512;18.050;2022-09-30T15:06:28;2.33;;;2.13;;
22080;SDS011;11207;59.512;18.050;2022-09-30T15:09:01;2.10;;;1.90;;
22080;SDS011;11207;59.512;18.050;2022-09-30T15:11:30;3.40;;;1.77;;
22080;SDS011;11207;59.512;18.050;2022-09-30T15:14:02;2.20;;;2.10;;
22080;SDS011;11207;59.512;18.050;2022-09-30T15:16:31;3.40;;;1.97;;
22080;SDS011;11207;59.512;18.050;2022-09-30T15:18:58;2.70;;;2.10;;
22080;SDS011;11207;59.512;18.050;2022-09-30T15:21:25;2.17;;;2.07;;
22080;SDS011;11207;59.512;18.050;2022-09-30T15:23:54;2.50;;;2.30;;
22080;SDS011;11207;59.512;18.050;2022-09-30T15:26:23;2.20;;;2.00;;
22080;SDS011;11207;59.512;18.050;2022-09-30T15:28:50;7.03;;;2.17;;
22080;SDS011;11207;59.512;18.050;2022-09-30T15:36:57;2.83;;;1.90;;
22080;SDS011;11207;59.512;18.050;2022-09-30T15:39:30;2.30;;;2.10;;
22080;SDS011;11207;59.512;18.050;2022-09-30T15:43:27;2.60;;;2.40;;
22080;SDS011;11207;59.512;18.050;2022-09-30T15:53:04;2.20;;;2.00;;
22080;SDS011;11207;59.512;18.050;2022-09-30T15:55:40;2.43;;;2.23;;
22080;SDS011;11207;59.512;18.050;2022-09-30T16:03:53;2.33;;;2.13;;
22080;SDS011;11207;59.512;18.050;2022-09-30T16:06:22;2.50;;;2.30;;
22080;SDS011;11207;59.512;18.050;2022-09-30T16:09:00;2.40;;;2.20;;
22080;SDS011;11207;59.512;18.050;2022-09-30T16:11:31;4.53;;;2.40;;
22080;SDS011;11207;59.512;18.050;2022-09-30T16:14:04;3.07;;;2.40;;
22080;SDS011;11207;59.512;18.050;2022-09-30T16:16:35;2.20;;;2.10;;
22080;SDS011;11207;59.512;18.050;2022-09-30T16:19:03;2.63;;;2.43;;
22080;SDS011;11207;59.512;18.050;2022-09-30T16:21:40;3.20;;;2.43;;
22080;SDS011;11207;59.512;18.050;2022-09-30T16:24:38;2.83;;;2.63;;
22080;SDS011;11207;59.512;18.050;2022-09-30T16:26:59;3.20;;;2.53;;
22080;SDS011;11207;59.512;18.050;2022-09-30T16:29:44;2.50;;;2.30;;
22080;SDS011;11207;59.512;18.050;2022-09-30T16:32:10;2.57;;;2.37;;
22080;SDS011;11207;59.512;18.050;2022-09-30T16:34:38;2.93;;;2.70;;
22080;SDS011;11207;59.512;18.050;2022-09-30T16:37:12;4.10;;;3.40;;
22080;SDS011;11207;59.512;18.050;2022-09-30T16:39:41;5.20;;;4.20;;
22080;SDS011;11207;59.512;18.050;2022-09-30T16:42:13;8.77;;;4.77;;
22080;SDS011;11207;59.512;18.050;2022-09-30T16:44:41;7.40;;;4.53;;
22080;SDS011;11207;59.512;18.050;2022-09-30T16:47:12;8.93;;;4.90;;
22080;SDS011;11207;59.512;18.050;2022-09-30T16:49:42;7.57;;;5.10;;
22080;SDS011;11207;59.512;18.050;2022-09-30T16:52:10;5.27;;;4.27;;
22080;SDS011;11207;59.512;18.050;2022-09-30T16:54:37;4.73;;;4.33;;
22080;SDS011;11207;59.512;18.050;2022-09-30T16:57:03;9.30;;;4.53;;
22080;SDS011;11207;59.512;18.050;2022-09-30T16:59:29;4.90;;;4.40;;
22080;SDS011;11207;59.512;18.050;2022-09-30T17:01:57;7.63;;;4.57;;
22080;SDS011;11207;59.512;18.050;2022-09-30T17:04:28;8.00;;;5.53;;
22080;SDS011;11207;59.512;18.050;2022-09-30T17:06:55;6.07;;;5.30;;
22080;SDS011;11207;59.512;18.050;2022-09-30T17:09:23;6.20;;;5.13;;
22080;SDS011;11207;59.512;18.050;2022-09-30T17:11:51;10.37;;;5.27;;
22080;SDS011;11207;59.512;18.050;2022-09-30T17:14:17;6.73;;;4.90;;
22080;SDS011;11207;59.512;18.050;2022-09-30T17:16:43;4.90;;;4.37;;
22080;SDS011;11207;59.512;18.050;2022-09-30T17:19:10;6.50;;;4.40;;
22080;SDS011;11207;59.512;18.050;2022-09-30T17:21:36;10.77;;;4.80;;
22080;SDS011;11207;59.512;18.050;2022-09-30T17:24:02;7.27;;;5.23;;
22080;SDS011;11207;59.512;18.050;2022-09-30T17:26:29;6.17;;;4.83;;
22080;SDS011;11207;59.512;18.050;2022-09-30T17:28:56;6.93;;;4.93;;
22080;SDS011;11207;59.512;18.050;2022-09-30T17:31:22;7.10;;;5.40;;
22080;SDS011;11207;59.512;18.050;2022-09-30T17:33:48;10.30;;;6.90;;
22080;SDS011;11207;59.512;18.050;2022-09-30T17:36:13;10.27;;;7.10;;
22080;SDS011;11207;59.512;18.050;2022-09-30T17:38:39;11.33;;;7.17;;
22080;SDS011;11207;59.512;18.050;2022-09-30T17:41:05;12.27;;;6.93;;
22080;SDS011;11207;59.512;18.050;2022-09-30T17:43:50;14.07;;;7.13;;
22080;SDS011;11207;59.512;18.050;2022-09-30T17:46:16;9.50;;;6.83;;
22080;SDS011;11207;59.512;18.050;2022-09-30T17:48:45;10.30;;;7.07;;
22080;SDS011;11207;59.512;18.050;2022-09-30T17:51:11;8.47;;;6.97;;
22080;SDS011;11207;59.512;18.050;2022-09-30T17:53:40;10.27;;;6.87;;
22080;SDS011;11207;59.512;18.050;2022-09-30T17:56:10;8.90;;;6.70;;
22080;SDS011;11207;59.512;18.050;2022-09-30T17:58:40;12.97;;;6.80;;
22080;SDS011;11207;59.512;18.050;2022-09-30T18:01:11;6.97;;;5.70;;
22080;SDS011;11207;59.512;18.050;2022-09-30T18:03:38;10.13;;;5.80;;
22080;SDS011;11207;59.512;18.050;2022-09-30T18:06:04;7.07;;;5.73;;
22080;SDS011;11207;59.512;18.050;2022-09-30T18:08:31;8.90;;;5.57;;
22080;SDS011;11207;59.512;18.050;2022-09-30T18:10:57;9.73;;;6.33;;
22080;SDS011;11207;59.512;18.050;2022-09-30T18:13:23;6.07;;;4.93;;
22080;SDS011;11207;59.512;18.050;2022-09-30T18:15:52;7.07;;;5.67;;
22080;SDS011;11207;59.512;18.050;2022-09-30T18:18:19;6.13;;;5.53;;
22080;SDS011;11207;59.512;18.050;2022-09-30T18:20:45;5.80;;;5.23;;
22080;SDS011;11207;59.512;18.050;2022-09-30T18:23:13;5.63;;;4.73;;
22080;SDS011;11207;59.512;18.050;2022-09-30T18:25:40;8.97;;;4.63;;
22080;SDS011;11207;59.512;18.050;2022-09-30T18:28:08;5.90;;;4.80;;
22080;SDS011;11207;59.512;18.050;2022-09-30T18:30:34;6.13;;;4.60;;
22080;SDS011;11207;59.512;18.050;2022-09-30T18:33:00;5.77;;;4.97;;
22080;SDS011;11207;59.512;18.050;2022-09-30T18:35:28;5.60;;;5.00;;
22080;SDS011;11207;59.512;18.050;2022-09-30T18:37:54;7.53;;;4.70;;
22080;SDS011;11207;59.512;18.050;2022-09-30T18:40:22;5.43;;;4.83;;
22080;SDS011;11207;59.512;18.050;2022-09-30T18:42:54;5.83;;;4.90;;
22080;SDS011;11207;59.512;18.050;2022-09-30T18:45:22;5.50;;;4.80;;
22080;SDS011;11207;59.512;18.050;2022-09-30T18:47:52;5.97;;;5.20;;
22080;SDS011;11207;59.512;18.050;2022-09-30T18:50:19;7.90;;;4.77;;